createdAt,value
2023-03-27T00:02:03.302Z,7.00
2023-03-27T00:04:29.922Z,5.32
2023-03-27T00:06:56.939Z,7.93
2023-03-27T00:09:23.469Z,5.95
2023-03-27T00:11:50.060Z,5.13
2023-03-27T00:14:16.628Z,5.05
2023-03-27T00:16:43.072Z,5.50
2023-03-27T00:19:09.691Z,6.22
2023-03-27T00:21:36.051Z,6.00
2023-03-27T00:24:02.501Z,5.57
2023-03-27T00:26:30.430Z,6.05
2023-03-27T00:28:57.014Z,5.55
2023-03-27T00:31:23.646Z,5.28
2023-03-27T00:33:50.304Z,5.28
2023-03-27T00:36:16.927Z,5.55
2023-03-27T00:38:43.694Z,4.70
2023-03-27T00:41:10.796Z,4.88
2023-03-27T00:43:43.335Z,5.45
2023-03-27T00:46:43.243Z,4.68
2023-03-27T00:49:14.992Z,4.97
2023-03-27T00:51:45.013Z,4.55
2023-03-27T00:54:16.147Z,4.05
2023-03-27T00:56:44.809Z,4.38
2023-03-27T00:59:16.024Z,4.68
2023-03-27T01:01:44.949Z,3.97
2023-03-27T01:04:11.672Z,4.07
2023-03-27T01:06:39.337Z,3.95
2023-03-27T01:09:06.044Z,4.10
2023-03-27T01:11:52.863Z,4.88
2023-03-27T01:14:51.278Z,6.70
2023-03-27T01:17:39.729Z,4.15
2023-03-27T01:20:24.641Z,5.43
2023-03-27T01:23:13.072Z,4.88
2023-03-27T01:26:36.087Z,4.82
2023-03-27T01:29:26.960Z,6.30
2023-03-27T01:32:17.354Z,4.75
2023-03-27T01:35:01.334Z,4.35
2023-03-27T01:37:47.604Z,4.75
2023-03-27T01:40:17.945Z,4.63
2023-03-27T01:42:54.829Z,4.93
2023-03-27T01:45:39.495Z,4.35
2023-03-27T01:48:27.260Z,6.10
2023-03-27T01:51:11.160Z,5.07
2023-03-27T01:53:52.252Z,5.05
2023-03-27T01:56:26.241Z,5.10
2023-03-27T01:58:59.153Z,4.93
2023-03-27T02:01:35.531Z,6.28
2023-03-27T02:04:03.832Z,5.70
2023-03-27T02:06:39.344Z,5.10
2023-03-27T02:09:38.683Z,5.30
2023-03-27T02:12:20.039Z,5.43
2023-03-27T02:14:53.614Z,4.23
2023-03-27T02:17:25.948Z,4.65
2023-03-27T02:20:09.414Z,4.97
2023-03-27T02:22:38.021Z,4.70
2023-03-27T02:25:26.079Z,5.28
2023-03-27T02:28:24.917Z,4.43
2023-03-27T02:31:33.929Z,4.55
2023-03-27T02:34:13.869Z,4.75
2023-03-27T02:36:49.395Z,4.68
2023-03-27T02:39:31.156Z,4.88
2023-03-27T02:42:08.041Z,4.35
2023-03-27T02:44:51.490Z,3.75
2023-03-27T02:47:28.567Z,3.78
2023-03-27T02:50:01.699Z,4.15
2023-03-27T02:55:06.747Z,4.20
2023-03-27T02:57:41.771Z,4.00
2023-03-27T03:00:50.291Z,3.80
2023-03-27T03:03:44.535Z,4.03
2023-03-27T03:06:42.196Z,3.88
2023-03-27T03:09:09.750Z,5.65
2023-03-27T03:11:39.261Z,3.50
2023-03-27T03:14:05.998Z,4.18
2023-03-27T03:16:33.884Z,4.45
2023-03-27T03:19:02.018Z,5.00
2023-03-27T03:21:28.867Z,4.30
2023-03-27T03:23:58.240Z,4.25
2023-03-27T03:26:26.927Z,4.05
2023-03-27T03:28:59.862Z,4.32
2023-03-27T03:31:43.960Z,3.75
2023-03-27T03:34:22.302Z,4.60
2023-03-27T03:36:49.563Z,4.80
2023-03-27T03:39:21.437Z,4.80
2023-03-27T03:41:49.781Z,4.18
2023-03-27T03:44:16.166Z,4.20
2023-03-27T03:46:42.641Z,3.83
2023-03-27T03:49:09.280Z,4.20
2023-03-27T03:51:36.471Z,4.50
2023-03-27T03:54:05.906Z,4.00
2023-03-27T03:56:34.185Z,4.82
2023-03-27T03:59:00.803Z,4.43
2023-03-27T04:01:27.934Z,5.00
2023-03-27T04:03:59.094Z,5.22
2023-03-27T04:06:31.003Z,5.05
2023-03-27T04:08:58.306Z,4.70
2023-03-27T04:11:48.762Z,4.20
2023-03-27T04:14:33.321Z,4.22
2023-03-27T04:17:04.396Z,4.03
2023-03-27T04:19:30.882Z,4.55
2023-03-27T04:22:04.397Z,5.32
2023-03-27T04:24:34.441Z,5.68
2023-03-27T04:27:03.777Z,3.83
2023-03-27T04:29:43.400Z,4.78
2023-03-27T04:32:28.711Z,3.92
2023-03-27T04:35:21.241Z,4.43
2023-03-27T04:37:57.694Z,4.18
2023-03-27T04:40:49.318Z,4.13
2023-03-27T04:43:17.292Z,3.27
2023-03-27T04:45:47.373Z,4.28
2023-03-27T04:48:15.194Z,4.55
2023-03-27T04:50:51.170Z,3.83
2023-03-27T04:53:36.278Z,3.95
2023-03-27T04:56:03.569Z,4.20
2023-03-27T05:01:05.333Z,4.13
2023-03-27T05:03:50.397Z,4.68
2023-03-27T05:06:26.104Z,6.65
2023-03-27T05:08:53.011Z,5.18
2023-03-27T05:11:25.595Z,6.22
2023-03-27T05:13:52.049Z,5.25
2023-03-27T05:16:22.385Z,6.68
2023-03-27T05:18:53.075Z,5.50
2023-03-27T05:21:19.510Z,6.15
2023-03-27T05:23:46.118Z,6.40
2023-03-27T05:26:12.812Z,7.90
2023-03-27T05:28:55.629Z,6.40
2023-03-27T05:31:22.466Z,5.70
2023-03-27T05:34:04.183Z,5.32
2023-03-27T05:36:32.716Z,6.15
2023-03-27T05:38:59.173Z,6.55
2023-03-27T05:41:32.251Z,7.90
2023-03-27T05:43:58.707Z,6.70
2023-03-27T05:46:25.675Z,5.70
2023-03-27T05:48:59.510Z,6.32
2023-03-27T05:51:26.570Z,6.53
2023-03-27T05:53:53.332Z,6.38
2023-03-27T05:56:22.819Z,6.55
2023-03-27T05:58:54.435Z,5.28
2023-03-27T06:01:23.673Z,5.82
2023-03-27T06:03:56.034Z,5.70
2023-03-27T06:06:43.742Z,5.93
2023-03-27T06:09:12.507Z,5.95
2023-03-27T06:11:42.711Z,6.60
2023-03-27T06:14:09.546Z,6.57
2023-03-27T06:16:49.335Z,5.90
2023-03-27T06:19:41.546Z,6.95
2023-03-27T06:22:08.016Z,6.38
2023-03-27T06:24:35.314Z,5.90
2023-03-27T06:27:03.735Z,7.10
2023-03-27T06:29:33.275Z,6.57
2023-03-27T06:32:01.460Z,6.28
2023-03-27T06:34:32.474Z,6.22
2023-03-27T06:37:05.255Z,7.90
2023-03-27T06:39:38.662Z,7.63
2023-03-27T06:42:05.422Z,6.82
2023-03-27T06:44:50.344Z,6.82
2023-03-27T06:48:15.936Z,7.68
2023-03-27T06:50:44.559Z,7.28
2023-03-27T06:53:26.649Z,7.30
2023-03-27T06:55:54.606Z,6.38
2023-03-27T06:58:22.179Z,6.75
2023-03-27T07:00:50.091Z,6.30
2023-03-27T07:03:18.283Z,6.53
2023-03-27T07:06:25.060Z,7.25
2023-03-27T07:08:57.303Z,6.97
2023-03-27T07:11:25.424Z,8.15
2023-03-27T07:13:55.098Z,6.82
2023-03-27T07:16:25.495Z,6.25
2023-03-27T07:18:52.130Z,7.07
2023-03-27T07:21:18.664Z,8.85
2023-03-27T07:23:46.169Z,8.00
2023-03-27T07:26:16.380Z,7.25
2023-03-27T07:29:02.934Z,9.15
2023-03-27T07:31:50.969Z,7.88
2023-03-27T07:34:16.645Z,6.35
2023-03-27T07:37:04.101Z,6.45
2023-03-27T07:39:31.847Z,8.30
2023-03-27T07:41:58.282Z,6.28
2023-03-27T07:44:32.926Z,7.22
2023-03-27T07:47:07.660Z,7.25
2023-03-27T07:49:39.348Z,7.78
2023-03-27T07:52:09.819Z,9.05
2023-03-27T07:54:44.331Z,8.20
2023-03-27T07:57:13.747Z,7.15
2023-03-27T07:59:52.646Z,6.80
2023-03-27T08:02:27.640Z,7.95
2023-03-27T08:04:55.107Z,6.75
2023-03-27T08:07:22.631Z,6.90
2023-03-27T08:09:49.050Z,6.65
2023-03-27T08:12:15.781Z,6.07
2023-03-27T08:14:49.229Z,6.60
2023-03-27T08:17:22.323Z,7.03
2023-03-27T08:19:48.988Z,6.38
2023-03-27T08:22:16.655Z,7.35
2023-03-27T08:25:06.154Z,7.05
2023-03-27T08:27:33.426Z,6.13
2023-03-27T08:30:01.347Z,5.85
2023-03-27T08:32:28.289Z,6.28
2023-03-27T08:34:55.760Z,6.53
2023-03-27T08:37:23.786Z,5.53
2023-03-27T08:40:28.374Z,7.25
2023-03-27T08:43:21.799Z,6.85
2023-03-27T08:45:57.316Z,6.25
2023-03-27T08:48:52.746Z,5.22
2023-03-27T08:51:27.469Z,6.20
2023-03-27T08:54:14.200Z,5.43
2023-03-27T08:56:41.156Z,7.38
2023-03-27T08:59:22.629Z,6.03
2023-03-27T09:02:15.667Z,5.13
2023-03-27T09:04:48.479Z,5.60
2023-03-27T09:10:24.240Z,6.07
2023-03-27T09:13:09.042Z,5.80
2023-03-27T09:15:52.722Z,6.97
2023-03-27T09:18:31.026Z,6.15
2023-03-27T09:21:04.214Z,8.52
2023-03-27T09:23:41.685Z,5.88
2023-03-27T09:26:35.907Z,5.90
2023-03-27T09:29:31.142Z,6.00
2023-03-27T09:32:15.460Z,7.45
2023-03-27T09:34:43.534Z,5.25
2023-03-27T09:37:14.372Z,6.30
2023-03-27T09:39:51.998Z,5.60
2023-03-27T09:42:33.199Z,6.38
2023-03-27T09:45:06.429Z,6.43
2023-03-27T09:48:00.280Z,6.13
2023-03-27T09:50:47.146Z,6.20
2023-03-27T09:53:25.140Z,6.10
2023-03-27T09:56:16.100Z,6.82
2023-03-27T09:58:48.978Z,4.60
2023-03-27T10:01:27.599Z,6.88
2023-03-27T10:03:59.637Z,4.97
2023-03-27T10:07:01.711Z,5.10
2023-03-27T10:10:03.886Z,5.35
2023-03-27T10:12:34.435Z,5.82
2023-03-27T10:15:01.436Z,5.35
2023-03-27T10:17:40.019Z,6.10
2023-03-27T10:20:15.527Z,5.85
2023-03-27T10:22:52.588Z,6.05
2023-03-27T10:25:32.166Z,7.55
2023-03-27T10:28:22.670Z,5.85
2023-03-27T10:31:29.789Z,4.90
2023-03-27T10:34:32.694Z,5.55
2023-03-27T10:37:30.031Z,5.78
2023-03-27T10:40:36.224Z,7.43
2023-03-27T10:43:16.596Z,6.35
2023-03-27T10:45:55.085Z,6.32
2023-03-27T10:48:49.786Z,5.72
2023-03-27T10:51:36.025Z,6.38
2023-03-27T10:54:34.370Z,5.57
2023-03-27T10:57:06.066Z,5.80
2023-03-27T10:59:42.337Z,5.85
2023-03-27T11:02:25.071Z,5.90
2023-03-27T11:04:55.054Z,7.00
2023-03-27T11:08:12.572Z,5.53
2023-03-27T11:10:44.797Z,6.65
2023-03-27T11:13:23.375Z,5.90
2023-03-27T11:15:59.060Z,9.55
2023-03-27T11:19:09.888Z,5.97
2023-03-27T11:22:03.358Z,5.63
2023-03-27T11:24:41.011Z,5.70
2023-03-27T11:27:23.253Z,5.15
2023-03-27T11:30:04.794Z,5.28
2023-03-27T11:33:05.296Z,7.25
2023-03-27T11:35:41.578Z,6.15
2023-03-27T11:38:33.317Z,5.93
2023-03-27T11:41:02.520Z,5.75
2023-03-27T11:43:29.466Z,5.90
2023-03-27T11:46:21.007Z,5.80
2023-03-27T11:48:53.721Z,6.28
2023-03-27T11:51:36.781Z,5.85
2023-03-27T11:57:02.513Z,7.28
2023-03-27T12:00:11.383Z,5.20
2023-03-27T12:03:06.797Z,6.22
2023-03-27T12:05:49.552Z,6.03
2023-03-27T12:08:40.973Z,5.43
2023-03-27T12:11:10.987Z,8.18
2023-03-27T12:14:00.916Z,5.88
2023-03-27T12:16:50.100Z,5.43
2023-03-27T12:19:45.676Z,5.55
2023-03-27T12:23:18.996Z,5.68
2023-03-27T12:26:48.884Z,6.00
2023-03-27T12:30:17.405Z,6.15
2023-03-27T12:33:03.110Z,6.18
2023-03-27T12:35:36.036Z,5.15
2023-03-27T12:38:07.260Z,5.38
2023-03-27T12:40:40.502Z,5.40
2023-03-27T12:43:18.203Z,5.57
2023-03-27T12:48:31.596Z,4.85
2023-03-27T12:50:59.173Z,5.82
2023-03-27T12:53:28.386Z,5.90
2023-03-27T12:56:10.622Z,5.00
2023-03-27T12:58:38.181Z,5.15
2023-03-27T13:01:52.731Z,5.72
2023-03-27T13:04:59.030Z,5.28
2023-03-27T13:07:52.191Z,6.05
2023-03-27T13:10:44.174Z,5.75
2023-03-27T13:13:14.056Z,5.05
2023-03-27T13:16:05.745Z,5.05
2023-03-27T13:19:09.062Z,5.20
2023-03-27T13:22:18.404Z,5.60
2023-03-27T13:25:04.151Z,5.43
2023-03-27T13:27:37.694Z,6.40
2023-03-27T13:30:05.523Z,5.93
2023-03-27T13:33:16.292Z,5.05
2023-03-27T13:36:14.365Z,4.82
2023-03-27T13:38:56.451Z,5.00
2023-03-27T13:41:44.760Z,6.13
2023-03-27T13:44:47.483Z,5.35
2023-03-27T13:47:36.196Z,5.18
2023-03-27T13:50:24.615Z,5.10
2023-03-27T13:53:04.482Z,5.95
2023-03-27T13:56:09.468Z,5.63
2023-03-27T13:59:29.249Z,5.30
2023-03-27T14:02:13.022Z,5.38
2023-03-27T14:05:12.291Z,6.68
2023-03-27T14:07:46.264Z,5.93
2023-03-27T14:10:24.180Z,5.38
2023-03-27T14:13:17.958Z,5.80
2023-03-27T14:16:16.005Z,4.80
2023-03-27T14:19:03.809Z,6.03
2023-03-27T14:21:49.710Z,4.95
2023-03-27T14:24:30.373Z,4.93
2023-03-27T14:27:11.046Z,5.03
2023-03-27T14:29:37.944Z,5.40
2023-03-27T14:32:05.763Z,5.15
2023-03-27T14:34:43.496Z,6.13
2023-03-27T14:37:38.864Z,5.45
2023-03-27T14:40:41.912Z,6.20
2023-03-27T14:43:12.245Z,5.45
2023-03-27T14:45:40.746Z,5.40
2023-03-27T14:48:17.466Z,6.43
2023-03-27T14:50:48.692Z,5.43
2023-03-27T14:53:26.165Z,5.35
2023-03-27T14:56:31.733Z,5.22
2023-03-27T14:59:27.510Z,5.47
2023-03-27T15:01:59.944Z,5.75
2023-03-27T15:04:29.935Z,5.20
2023-03-27T15:07:14.191Z,2.45
2023-03-27T15:10:20.478Z,4.28
2023-03-27T15:13:09.758Z,14.65
2023-03-27T15:15:42.498Z,15.73
2023-03-27T15:18:36.014Z,2.75
2023-03-27T15:24:06.633Z,2.15
2023-03-27T15:26:35.352Z,2.75
2023-03-27T15:29:40.666Z,2.20
2023-03-27T15:32:12.280Z,1.75
2023-03-27T15:34:46.013Z,1.90
2023-03-27T15:37:23.152Z,1.83
2023-03-27T15:40:13.515Z,1.80
2023-03-27T15:43:08.124Z,1.58
2023-03-27T15:45:40.395Z,1.52
2023-03-27T15:48:15.714Z,1.88
2023-03-27T15:50:56.130Z,2.35
2023-03-27T15:53:32.789Z,1.98
2023-03-27T15:56:01.927Z,1.50
2023-03-27T15:58:33.027Z,1.15
2023-03-27T16:01:02.026Z,1.48
2023-03-27T16:03:32.894Z,1.60
2023-03-27T16:06:00.968Z,1.40
2023-03-27T16:08:38.471Z,1.40
2023-03-27T16:11:06.328Z,1.33
2023-03-27T16:13:36.607Z,1.17
2023-03-27T16:16:20.694Z,0.88
2023-03-27T16:18:49.185Z,1.58
2023-03-27T16:21:15.682Z,1.40
2023-03-27T16:23:43.852Z,1.77
2023-03-27T16:26:15.396Z,2.67
2023-03-27T16:28:42.181Z,1.40
2023-03-27T16:31:17.557Z,2.65
2023-03-27T16:33:45.461Z,2.03
2023-03-27T16:36:15.177Z,3.22
2023-03-27T16:38:43.347Z,2.67
2023-03-27T16:41:17.612Z,2.05
2023-03-27T16:43:44.770Z,1.88
2023-03-27T16:46:22.277Z,2.50
2023-03-27T16:48:50.977Z,2.22
2023-03-27T16:51:19.066Z,1.50
2023-03-27T16:53:45.460Z,2.03
2023-03-27T16:56:12.287Z,1.70
2023-03-27T16:58:39.127Z,1.63
2023-03-27T17:01:07.400Z,2.03
2023-03-27T17:03:34.219Z,1.55
2023-03-27T17:06:02.534Z,2.28
2023-03-27T17:08:31.021Z,2.45
2023-03-27T17:11:06.110Z,2.42
2023-03-27T17:13:32.547Z,2.55
2023-03-27T17:15:59.290Z,3.42
2023-03-27T17:18:26.435Z,5.28
2023-03-27T17:20:52.897Z,4.70
2023-03-27T17:23:19.722Z,3.53
2023-03-27T17:25:46.782Z,4.55
2023-03-27T17:28:13.579Z,3.90
2023-03-27T17:30:56.591Z,2.47
2023-03-27T17:33:28.351Z,2.22
2023-03-27T17:35:56.880Z,1.88
2023-03-27T17:38:24.027Z,2.45
2023-03-27T17:40:51.113Z,2.78
2023-03-27T17:43:18.146Z,2.70
2023-03-27T17:45:44.576Z,2.20
2023-03-27T17:48:11.370Z,5.90
2023-03-27T17:50:38.687Z,5.60
2023-03-27T17:53:05.168Z,15.55
2023-03-27T17:55:31.666Z,9.15
2023-03-27T17:58:08.315Z,3.42
2023-03-27T18:00:36.982Z,16.23
2023-03-27T18:03:03.644Z,3.60
2023-03-27T18:05:30.275Z,2.53
2023-03-27T18:07:56.699Z,2.15
2023-03-27T18:10:23.167Z,1.95
2023-03-27T18:12:49.873Z,2.75
2023-03-27T18:15:16.341Z,2.80
2023-03-27T18:17:42.791Z,4.32
2023-03-27T18:20:12.706Z,4.88
2023-03-27T18:22:39.545Z,5.22
2023-03-27T18:25:08.592Z,7.63
2023-03-27T18:27:39.964Z,5.60
2023-03-27T18:30:12.551Z,5.55
2023-03-27T18:32:41.420Z,5.57
2023-03-27T18:35:12.692Z,6.65
2023-03-27T18:37:39.537Z,7.47
2023-03-27T18:40:11.026Z,8.82
2023-03-27T18:42:40.174Z,6.72
2023-03-27T18:45:08.217Z,5.43
2023-03-27T18:47:35.784Z,4.82
2023-03-27T18:50:03.691Z,4.03
2023-03-27T18:52:30.198Z,4.20
2023-03-27T18:54:56.612Z,4.78
2023-03-27T18:57:23.613Z,4.25
2023-03-27T18:59:50.516Z,4.63
2023-03-27T19:02:17.918Z,4.85
2023-03-27T19:04:45.270Z,4.22
2023-03-27T19:07:11.836Z,4.28
2023-03-27T19:09:41.756Z,3.75
2023-03-27T19:12:09.735Z,5.95
2023-03-27T19:14:55.049Z,8.23
2023-03-27T19:17:34.247Z,5.78
2023-03-27T19:20:17.095Z,6.28
2023-03-27T19:23:12.617Z,7.05
2023-03-27T19:25:46.474Z,7.95
2023-03-27T19:28:12.900Z,7.25
2023-03-27T19:30:39.595Z,5.45
2023-03-27T19:33:06.532Z,4.10
2023-03-27T19:35:33.034Z,3.58
2023-03-27T19:37:59.566Z,4.05
2023-03-27T19:40:26.086Z,4.35
2023-03-27T19:42:52.552Z,3.88
2023-03-27T19:45:18.945Z,4.45
2023-03-27T19:47:47.231Z,4.25
2023-03-27T19:50:14.797Z,4.55
2023-03-27T19:53:09.003Z,4.03
2023-03-27T19:55:35.707Z,4.70
2023-03-27T19:58:02.111Z,5.18
2023-03-27T20:00:30.163Z,5.05
2023-03-27T20:02:57.930Z,6.13
2023-03-27T20:05:24.474Z,4.90
2023-03-27T20:07:51.545Z,6.10
2023-03-27T20:10:18.001Z,5.50
2023-03-27T20:12:44.475Z,5.57
2023-03-27T20:15:12.511Z,5.63
2023-03-27T20:17:42.734Z,5.05
2023-03-27T20:20:12.896Z,6.72
2023-03-27T20:22:54.211Z,6.28
2023-03-27T20:25:23.605Z,5.50
2023-03-27T20:27:50.239Z,4.82
2023-03-27T20:30:16.847Z,6.47
2023-03-27T20:32:43.330Z,9.23
2023-03-27T20:35:20.532Z,7.43
2023-03-27T20:37:50.487Z,9.07
2023-03-27T20:40:20.569Z,7.97
2023-03-27T20:42:47.126Z,7.18
2023-03-27T20:45:19.265Z,5.03
2023-03-27T20:47:48.675Z,5.40
2023-03-27T20:50:15.691Z,5.65
2023-03-27T20:52:44.884Z,7.43
2023-03-27T20:55:17.347Z,8.95
2023-03-27T20:57:49.724Z,8.40
2023-03-27T21:00:17.011Z,5.65
2023-03-27T21:02:43.941Z,4.38
2023-03-27T21:05:10.901Z,4.85
2023-03-27T21:07:38.058Z,3.70
2023-03-27T21:10:06.485Z,4.30
2023-03-27T21:12:32.915Z,4.35
2023-03-27T21:14:59.667Z,4.13
2023-03-27T21:17:26.102Z,4.82
2023-03-27T21:19:52.470Z,3.92
2023-03-27T21:22:18.849Z,4.20
2023-03-27T21:24:45.256Z,4.10
2023-03-27T21:27:12.536Z,3.80
2023-03-27T21:29:38.940Z,4.15
2023-03-27T21:32:05.754Z,4.25
2023-03-27T21:34:32.183Z,4.38
2023-03-27T21:36:58.780Z,5.00
2023-03-27T21:39:25.298Z,4.75
2023-03-27T21:41:51.684Z,4.30
2023-03-27T21:44:18.039Z,4.00
2023-03-27T21:46:44.487Z,4.35
2023-03-27T21:49:11.984Z,3.80
2023-03-27T21:51:38.765Z,4.28
2023-03-27T21:54:05.430Z,3.80
2023-03-27T21:56:32.099Z,3.97
2023-03-27T21:58:58.759Z,3.40
2023-03-27T22:01:26.262Z,4.25
2023-03-27T22:03:52.756Z,4.65
2023-03-27T22:06:19.551Z,4.32
2023-03-27T22:08:46.302Z,4.93
2023-03-27T22:11:12.788Z,4.28
2023-03-27T22:13:39.538Z,4.35
2023-03-27T22:16:15.508Z,5.13
2023-03-27T22:18:43.274Z,4.65
2023-03-27T22:21:29.079Z,4.00
2023-03-27T22:23:56.771Z,4.13
2023-03-27T22:26:26.862Z,5.50
2023-03-27T22:28:53.553Z,4.70
2023-03-27T22:31:21.479Z,4.57
2023-03-27T22:33:48.225Z,5.25
2023-03-27T22:36:14.622Z,4.45
2023-03-27T22:38:41.860Z,4.30
2023-03-27T22:41:11.050Z,4.22
2023-03-27T22:43:37.807Z,4.13
2023-03-27T22:46:09.537Z,4.03
2023-03-27T22:48:36.147Z,3.85
2023-03-27T22:51:03.008Z,4.30
2023-03-27T22:53:31.660Z,4.18
2023-03-27T22:55:59.822Z,3.97
2023-03-27T22:58:27.537Z,4.00
2023-03-27T23:00:55.260Z,3.92
2023-03-27T23:03:23.584Z,4.75
2023-03-27T23:05:50.961Z,4.20
2023-03-27T23:08:19.862Z,3.72
2023-03-27T23:10:46.465Z,5.05
2023-03-27T23:13:13.226Z,4.10
2023-03-27T23:15:39.591Z,3.97
2023-03-27T23:18:06.275Z,4.13
2023-03-27T23:20:32.720Z,4.15
2023-03-27T23:22:59.121Z,4.63
2023-03-27T23:25:25.737Z,4.22
2023-03-27T23:27:52.100Z,3.97
2023-03-27T23:30:18.495Z,3.80
2023-03-27T23:32:45.296Z,3.58
2023-03-27T23:35:12.188Z,3.70
2023-03-27T23:37:38.671Z,3.95
2023-03-27T23:40:05.944Z,3.88
2023-03-27T23:42:32.411Z,4.05
2023-03-27T23:44:58.818Z,3.90
2023-03-27T23:47:25.264Z,3.83
2023-03-27T23:49:51.657Z,4.25
2023-03-27T23:52:18.057Z,4.30
2023-03-27T23:54:44.461Z,4.05
2023-03-27T23:57:10.869Z,4.50
2023-03-27T23:59:38.168Z,4.40
